sensor_id;sensor_type;location;lat;lon;timestamp;pressure;altitude;pressure_sealevel;temperature;humidity
81125;BME280;71444;52.114;5.424;2023-08-01T00:01:58;100010.53;;;14.83;100.00
81125;BME280;71444;52.114;5.424;2023-08-01T00:04:46;100004.25;;;14.83;100.00
81125;BME280;71444;52.114;5.424;2023-08-01T00:07:36;99997.38;;;14.80;100.00
81125;BME280;71444;52.114;5.424;2023-08-01T00:10:24;99999.03;;;14.75;100.00
81125;BME280;71444;52.114;5.424;2023-08-01T00:13:12;100002.63;;;14.69;100.00
81125;BME280;71444;52.114;5.424;2023-08-01T00:16:00;100003.06;;;14.66;100.00
81125;BME280;71444;52.114;5.424;2023-08-01T00:18:48;99996.78;;;14.65;100.00
81125;BME280;71444;52.114;5.424;2023-08-01T00:21:36;100000.34;;;14.66;100.00
81125;BME280;71444;52.114;5.424;2023-08-01T00:24:25;99986.75;;;14.66;100.00
81125;BME280;71444;52.114;5.424;2023-08-01T00:27:13;99990.31;;;14.66;100.00
81125;BME280;71444;52.114;5.424;2023-08-01T00:30:03;99978.59;;;14.66;100.00
81125;BME280;71444;52.114;5.424;2023-08-01T00:32:52;99975.88;;;14.66;100.00
81125;BME280;71444;52.114;5.424;2023-08-01T00:35:41;99967.09;;;14.63;100.00
81125;BME280;71444;52.114;5.424;2023-08-01T00:38:29;99965.03;;;14.59;100.00
81125;BME280;71444;52.114;5.424;2023-08-01T00:41:18;99963.75;;;14.55;100.00
81125;BME280;71444;52.114;5.424;2023-08-01T00:44:06;99953.75;;;14.49;100.00
81125;BME280;71444;52.114;5.424;2023-08-01T00:46:54;99947.25;;;14.43;100.00
81125;BME280;71444;52.114;5.424;2023-08-01T00:49:43;99944.56;;;14.37;100.00
81125;BME280;71444;52.114;5.424;2023-08-01T00:52:31;99941.63;;;14.31;100.00
81125;BME280;71444;52.114;5.424;2023-08-01T00:55:21;99941.44;;;14.26;100.00
81125;BME280;71444;52.114;5.424;2023-08-01T00:58:10;99939.34;;;14.22;100.00
81125;BME280;71444;52.114;5.424;2023-08-01T01:00:58;99927.63;;;14.15;100.00
81125;BME280;71444;52.114;5.424;2023-08-01T01:03:47;99932.44;;;14.13;100.00
81125;BME280;71444;52.114;5.424;2023-08-01T01:07:09;99931.41;;;14.07;100.00
81125;BME280;71444;52.114;5.424;2023-08-01T01:09:58;99921.16;;;14.02;100.00
81125;BME280;71444;52.114;5.424;2023-08-01T01:12:46;99919.94;;;13.98;100.00
81125;BME280;71444;52.114;5.424;2023-08-01T01:15:36;99921.59;;;13.93;100.00
81125;BME280;71444;52.114;5.424;2023-08-01T01:18:25;99925.78;;;13.89;100.00
81125;BME280;71444;52.114;5.424;2023-08-01T01:21:13;99929.09;;;13.84;100.00
81125;BME280;71444;52.114;5.424;2023-08-01T01:24:02;99928.47;;;13.82;100.00
81125;BME280;71444;52.114;5.424;2023-08-01T01:26:53;99928.69;;;13.81;100.00
81125;BME280;71444;52.114;5.424;2023-08-01T01:29:47;99930.78;;;13.78;100.00
81125;BME280;71444;52.114;5.424;2023-08-01T01:32:37;99923.03;;;13.75;100.00
81125;BME280;71444;52.114;5.424;2023-08-01T01:35:25;99923.25;;;13.74;100.00
81125;BME280;71444;52.114;5.424;2023-08-01T01:38:15;99928.66;;;13.74;100.00
81125;BME280;71444;52.114;5.424;2023-08-01T01:41:04;99933.25;;;13.73;100.00
81125;BME280;71444;52.114;5.424;2023-08-01T01:43:52;99923.47;;;13.72;100.00
81125;BME280;71444;52.114;5.424;2023-08-01T01:46:40;99922.41;;;13.73;100.00
81125;BME280;71444;52.114;5.424;2023-08-01T01:49:28;99920.75;;;13.72;100.00
81125;BME280;71444;52.114;5.424;2023-08-01T01:52:16;99922.00;;;13.70;100.00
81125;BME280;71444;52.114;5.424;2023-08-01T01:55:05;99914.91;;;13.69;100.00
81125;BME280;71444;52.114;5.424;2023-08-01T01:57:53;99917.41;;;13.70;100.00
81125;BME280;71444;52.114;5.424;2023-08-01T02:00:42;99915.53;;;13.71;100.00
81125;BME280;71444;52.114;5.424;2023-08-01T02:03:30;99914.69;;;13.70;100.00
81125;BME280;71444;52.114;5.424;2023-08-01T02:06:19;99918.25;;;13.71;100.00
81125;BME280;71444;52.114;5.424;2023-08-01T02:09:07;99914.69;;;13.70;100.00
81125;BME280;71444;52.114;5.424;2023-08-01T02:11:55;99918.47;;;13.69;100.00
81125;BME280;71444;52.114;5.424;2023-08-01T02:14:43;99910.53;;;13.68;100.00
81125;BME280;71444;52.114;5.424;2023-08-01T02:17:31;99911.56;;;13.67;100.00
81125;BME280;71444;52.114;5.424;2023-08-01T02:20:19;99909.88;;;13.66;100.00
81125;BME280;71444;52.114;5.424;2023-08-01T02:23:07;99900.91;;;13.65;100.00
81125;BME280;71444;52.114;5.424;2023-08-01T02:25:55;99900.50;;;13.68;100.00
81125;BME280;71444;52.114;5.424;2023-08-01T02:28:43;99900.09;;;13.71;100.00
81125;BME280;71444;52.114;5.424;2023-08-01T02:31:23;99900.31;;;13.76;100.00
81125;BME280;71444;52.114;5.424;2023-08-01T02:34:13;99903.84;;;13.84;100.00
81125;BME280;71444;52.114;5.424;2023-08-01T02:36:53;99905.72;;;13.90;100.00
81125;BME280;71444;52.114;5.424;2023-08-01T02:39:42;99905.75;;;13.96;100.00
81125;BME280;71444;52.114;5.424;2023-08-01T02:42:29;99902.38;;;14.01;100.00
81125;BME280;71444;52.114;5.424;2023-08-01T02:45:18;99910.75;;;14.06;100.00
81125;BME280;71444;52.114;5.424;2023-08-01T02:48:06;99917.41;;;14.10;100.00
81125;BME280;71444;52.114;5.424;2023-08-01T02:50:54;99933.28;;;14.13;100.00
81125;BME280;71444;52.114;5.424;2023-08-01T02:53:42;99931.00;;;14.17;100.00
81125;BME280;71444;52.114;5.424;2023-08-01T02:56:31;99925.13;;;14.20;100.00
81125;BME280;71444;52.114;5.424;2023-08-01T02:59:19;99930.13;;;14.23;100.00
81125;BME280;71444;52.114;5.424;2023-08-01T03:02:07;99915.28;;;14.25;100.00
81125;BME280;71444;52.114;5.424;2023-08-01T03:04:55;99916.78;;;14.28;100.00
81125;BME280;71444;52.114;5.424;2023-08-01T03:07:45;99909.69;;;14.27;100.00
81125;BME280;71444;52.114;5.424;2023-08-01T03:10:34;99911.56;;;14.26;100.00
81125;BME280;71444;52.114;5.424;2023-08-01T03:13:22;99906.13;;;14.26;100.00
81125;BME280;71444;52.114;5.424;2023-08-01T03:16:10;99906.53;;;14.23;100.00
81125;BME280;71444;52.114;5.424;2023-08-01T03:18:59;99905.09;;;14.21;100.00
81125;BME280;71444;52.114;5.424;2023-08-01T03:21:42;99899.66;;;14.21;100.00
81125;BME280;71444;52.114;5.424;2023-08-01T03:24:31;99913.22;;;14.21;100.00
81125;BME280;71444;52.114;5.424;2023-08-01T03:27:19;99917.59;;;14.22;100.00
81125;BME280;71444;52.114;5.424;2023-08-01T03:30:07;99918.44;;;14.22;100.00
81125;BME280;71444;52.114;5.424;2023-08-01T03:32:56;99911.13;;;14.23;100.00
81125;BME280;71444;52.114;5.424;2023-08-01T03:35:37;99917.00;;;14.26;100.00
81125;BME280;71444;52.114;5.424;2023-08-01T03:38:17;99911.97;;;14.23;100.00
81125;BME280;71444;52.114;5.424;2023-08-01T03:41:06;99914.88;;;14.15;100.00
81125;BME280;71444;52.114;5.424;2023-08-01T03:43:54;99923.25;;;14.14;100.00
81125;BME280;71444;52.114;5.424;2023-08-01T03:46:42;99916.16;;;14.13;100.00
81125;BME280;71444;52.114;5.424;2023-08-01T03:49:30;99921.59;;;14.13;100.00
81125;BME280;71444;52.114;5.424;2023-08-01T03:52:19;99921.81;;;14.11;100.00
81125;BME280;71444;52.114;5.424;2023-08-01T03:55:07;99911.56;;;14.13;100.00
81125;BME280;71444;52.114;5.424;2023-08-01T03:57:56;99913.22;;;14.14;100.00
81125;BME280;71444;52.114;5.424;2023-08-01T04:00:44;99917.59;;;14.15;100.00
81125;BME280;71444;52.114;5.424;2023-08-01T04:03:32;99911.16;;;14.16;100.00
81125;BME280;71444;52.114;5.424;2023-08-01T04:06:16;99912.00;;;14.17;100.00
81125;BME280;71444;52.114;5.424;2023-08-01T04:09:05;99914.50;;;14.18;100.00
81125;BME280;71444;52.114;5.424;2023-08-01T04:11:54;99909.91;;;14.19;100.00
81125;BME280;71444;52.114;5.424;2023-08-01T04:14:39;99917.00;;;14.20;100.00
81125;BME280;71444;52.114;5.424;2023-08-01T04:17:28;99918.44;;;14.22;100.00
81125;BME280;71444;52.114;5.424;2023-08-01T04:20:16;99916.34;;;14.24;100.00
81125;BME280;71444;52.114;5.424;2023-08-01T04:22:56;99907.16;;;14.25;100.00
81125;BME280;71444;52.114;5.424;2023-08-01T04:25:44;99910.91;;;14.24;100.00
81125;BME280;71444;52.114;5.424;2023-08-01T04:28:34;99913.22;;;14.21;100.00
81125;BME280;71444;52.114;5.424;2023-08-01T04:31:22;99900.91;;;14.18;100.00
81125;BME280;71444;52.114;5.424;2023-08-01T04:34:10;99904.03;;;14.15;100.00
81125;BME280;71444;52.114;5.424;2023-08-01T04:37:00;99904.88;;;14.16;100.00
81125;BME280;71444;52.114;5.424;2023-08-01T04:39:48;99900.31;;;14.16;100.00
81125;BME280;71444;52.114;5.424;2023-08-01T04:42:36;99896.31;;;14.19;100.00
81125;BME280;71444;52.114;5.424;2023-08-01T04:45:24;99904.88;;;14.22;100.00
81125;BME280;71444;52.114;5.424;2023-08-01T04:48:12;99900.88;;;14.25;100.00
81125;BME280;71444;52.114;5.424;2023-08-01T04:51:00;99896.72;;;14.29;100.00
81125;BME280;71444;52.114;5.424;2023-08-01T04:53:49;99903.59;;;14.38;100.00
81125;BME280;71444;52.114;5.424;2023-08-01T04:56:38;99894.44;;;14.46;100.00
81125;BME280;71444;52.114;5.424;2023-08-01T04:59:26;99902.75;;;14.51;100.00
81125;BME280;71444;52.114;5.424;2023-08-01T05:02:14;99897.53;;;14.56;100.00
81125;BME280;71444;52.114;5.424;2023-08-01T05:05:02;99902.53;;;14.66;100.00
81125;BME280;71444;52.114;5.424;2023-08-01T05:07:50;99900.38;;;14.81;100.00
81125;BME280;71444;52.114;5.424;2023-08-01T05:10:38;99909.50;;;14.93;100.00
81125;BME280;71444;52.114;5.424;2023-08-01T05:13:27;99914.06;;;15.06;100.00
81125;BME280;71444;52.114;5.424;2023-08-01T05:16:14;99915.06;;;15.18;100.00
81125;BME280;71444;52.114;5.424;2023-08-01T05:19:02;99913.97;;;15.26;100.00
81125;BME280;71444;52.114;5.424;2023-08-01T05:21:51;99912.09;;;15.26;100.00
81125;BME280;71444;52.114;5.424;2023-08-01T05:24:39;99917.75;;;15.25;100.00
81125;BME280;71444;52.114;5.424;2023-08-01T05:27:27;99916.28;;;15.22;100.00
81125;BME280;71444;52.114;5.424;2023-08-01T05:30:15;99908.75;;;15.24;100.00
81125;BME280;71444;52.114;5.424;2023-08-01T05:33:07;99912.50;;;15.23;100.00
81125;BME280;71444;52.114;5.424;2023-08-01T05:35:55;99921.31;;;15.25;100.00
81125;BME280;71444;52.114;5.424;2023-08-01T05:38:43;99921.91;;;15.27;100.00
81125;BME280;71444;52.114;5.424;2023-08-01T05:41:31;99930.06;;;15.27;100.00
81125;BME280;71444;52.114;5.424;2023-08-01T05:44:20;99927.53;;;15.32;100.00
81125;BME280;71444;52.114;5.424;2023-08-01T05:47:08;99929.59;;;15.37;100.00
81125;BME280;71444;52.114;5.424;2023-08-01T05:49:59;99924.06;;;15.50;100.00
81125;BME280;71444;52.114;5.424;2023-08-01T05:52:47;99929.34;;;16.08;100.00
81125;BME280;71444;52.114;5.424;2023-08-01T05:55:36;99924.84;;;15.95;100.00
81125;BME280;71444;52.114;5.424;2023-08-01T05:58:24;99931.44;;;15.81;100.00
81125;BME280;71444;52.114;5.424;2023-08-01T06:01:12;99932.09;;;15.76;100.00
81125;BME280;71444;52.114;5.424;2023-08-01T06:04:01;99935.69;;;15.70;100.00
81125;BME280;71444;52.114;5.424;2023-08-01T06:06:49;99933.66;;;15.66;100.00
81125;BME280;71444;52.114;5.424;2023-08-01T06:09:38;99939.69;;;15.68;100.00
81125;BME280;71444;52.114;5.424;2023-08-01T06:12:26;99939.66;;;15.74;100.00
81125;BME280;71444;52.114;5.424;2023-08-01T06:15:15;99943.91;;;15.95;100.00
81125;BME280;71444;52.114;5.424;2023-08-01T06:18:03;99946.28;;;16.10;100.00
81125;BME280;71444;52.114;5.424;2023-08-01T06:20:51;99944.91;;;16.26;100.00
81125;BME280;71444;52.114;5.424;2023-08-01T06:23:40;99954.50;;;16.28;100.00
81125;BME280;71444;52.114;5.424;2023-08-01T06:26:28;99961.13;;;16.39;100.00
81125;BME280;71444;52.114;5.424;2023-08-01T06:29:20;99954.31;;;16.48;100.00
81125;BME280;71444;52.114;5.424;2023-08-01T06:32:08;99965.41;;;16.53;100.00
81125;BME280;71444;52.114;5.424;2023-08-01T06:34:56;99954.88;;;16.57;100.00
81125;BME280;71444;52.114;5.424;2023-08-01T06:37:44;99969.19;;;16.52;100.00
81125;BME280;71444;52.114;5.424;2023-08-01T06:40:34;99969.50;;;16.62;99.96
81125;BME280;71444;52.114;5.424;2023-08-01T06:43:26;99953.34;;;16.61;98.88
81125;BME280;71444;52.114;5.424;2023-08-01T06:46:14;99965.50;;;16.65;98.78
81125;BME280;71444;52.114;5.424;2023-08-01T06:49:02;99961.81;;;16.78;97.26
81125;BME280;71444;52.114;5.424;2023-08-01T06:51:52;99966.75;;;16.87;97.58
81125;BME280;71444;52.114;5.424;2023-08-01T06:54:40;99964.91;;;17.00;97.29
81125;BME280;71444;52.114;5.424;2023-08-01T06:57:29;99974.75;;;17.01;97.27
81125;BME280;71444;52.114;5.424;2023-08-01T07:00:17;99967.09;;;17.09;95.88
81125;BME280;71444;52.114;5.424;2023-08-01T07:03:05;99965.59;;;17.13;94.89
81125;BME280;71444;52.114;5.424;2023-08-01T07:05:54;99968.09;;;17.15;95.87
81125;BME280;71444;52.114;5.424;2023-08-01T07:08:42;99966.44;;;17.32;95.92
81125;BME280;71444;52.114;5.424;2023-08-01T07:11:11;99967.25;;;17.33;93.92
81125;BME280;71444;52.114;5.424;2023-08-01T07:13:59;99959.16;;;17.26;94.94
81125;BME280;71444;52.114;5.424;2023-08-01T07:16:47;99951.72;;;17.33;95.63
81125;BME280;71444;52.114;5.424;2023-08-01T07:19:36;99963.44;;;17.52;95.71
81125;BME280;71444;52.114;5.424;2023-08-01T07:22:24;99966.31;;;17.69;93.39
81125;BME280;71444;52.114;5.424;2023-08-01T07:25:12;99965.94;;;17.84;94.56
81125;BME280;71444;52.114;5.424;2023-08-01T07:28:02;99960.09;;;18.22;92.69
81125;BME280;71444;52.114;5.424;2023-08-01T07:31:01;99961.00;;;18.16;93.75
81125;BME280;71444;52.114;5.424;2023-08-01T07:33:51;99980.75;;;17.76;96.26
81125;BME280;71444;52.114;5.424;2023-08-01T07:36:40;99974.31;;;17.40;95.75
81125;BME280;71444;52.114;5.424;2023-08-01T07:39:29;99978.72;;;17.05;95.42
81125;BME280;71444;52.114;5.424;2023-08-01T07:42:18;99977.13;;;16.97;97.46
81125;BME280;71444;52.114;5.424;2023-08-01T07:45:07;99985.06;;;16.80;97.91
81125;BME280;71444;52.114;5.424;2023-08-01T07:47:56;99989.94;;;16.53;98.47
81125;BME280;71444;52.114;5.424;2023-08-01T07:50:47;99991.22;;;16.26;98.07
81125;BME280;71444;52.114;5.424;2023-08-01T07:53:26;99980.22;;;16.14;99.08
81125;BME280;71444;52.114;5.424;2023-08-01T07:56:06;99981.81;;;15.97;98.29
81125;BME280;71444;52.114;5.424;2023-08-01T07:58:55;99994.88;;;15.82;98.70
81125;BME280;71444;52.114;5.424;2023-08-01T08:01:43;99989.25;;;15.76;97.90
81125;BME280;71444;52.114;5.424;2023-08-01T08:04:33;100001.22;;;16.07;98.02
81125;BME280;71444;52.114;5.424;2023-08-01T08:07:21;99988.09;;;16.47;96.94
81125;BME280;71444;52.114;5.424;2023-08-01T08:10:11;99995.63;;;16.95;97.17
81125;BME280;71444;52.114;5.424;2023-08-01T08:12:59;100004.16;;;17.35;95.81
81125;BME280;71444;52.114;5.424;2023-08-01T08:15:47;99979.09;;;17.75;93.99
81125;BME280;71444;52.114;5.424;2023-08-01T08:18:30;99986.06;;;18.01;92.67
81125;BME280;71444;52.114;5.424;2023-08-01T08:21:18;99990.72;;;18.24;88.82
81125;BME280;71444;52.114;5.424;2023-08-01T08:24:06;99990.88;;;18.29;89.26
81125;BME280;71444;52.114;5.424;2023-08-01T08:26:55;99988.00;;;18.24;89.17
81125;BME280;71444;52.114;5.424;2023-08-01T08:29:43;99995.94;;;18.14;87.07
81125;BME280;71444;52.114;5.424;2023-08-01T08:32:31;99999.28;;;18.16;87.82
81125;BME280;71444;52.114;5.424;2023-08-01T08:35:20;100005.47;;;18.23;88.48
81125;BME280;71444;52.114;5.424;2023-08-01T08:38:09;99993.94;;;18.21;84.96
81125;BME280;71444;52.114;5.424;2023-08-01T08:41:21;99998.00;;;18.30;88.94
81125;BME280;71444;52.114;5.424;2023-08-01T08:44:17;100002.03;;;18.27;85.37
81125;BME280;71444;52.114;5.424;2023-08-01T08:47:07;100001.19;;;18.27;85.14
81125;BME280;71444;52.114;5.424;2023-08-01T08:50:01;99985.06;;;18.60;84.42
81125;BME280;71444;52.114;5.424;2023-08-01T08:52:50;100005.91;;;18.85;86.47
81125;BME280;71444;52.114;5.424;2023-08-01T08:55:42;99996.63;;;18.98;82.68
81125;BME280;71444;52.114;5.424;2023-08-01T08:58:22;100006.25;;;18.88;85.32
81125;BME280;71444;52.114;5.424;2023-08-01T09:01:09;100011.59;;;18.83;92.31
81125;BME280;71444;52.114;5.424;2023-08-01T09:03:58;100004.09;;;18.67;85.02
81125;BME280;71444;52.114;5.424;2023-08-01T09:06:49;100005.03;;;18.61;85.65
81125;BME280;71444;52.114;5.424;2023-08-01T09:09:45;99997.56;;;18.91;82.13
81125;BME280;71444;52.114;5.424;2023-08-01T09:12:36;99998.25;;;19.10;81.75
81125;BME280;71444;52.114;5.424;2023-08-01T09:15:25;100011.47;;;18.67;81.13
81125;BME280;71444;52.114;5.424;2023-08-01T09:18:17;100017.41;;;18.52;85.39
81125;BME280;71444;52.114;5.424;2023-08-01T09:21:05;100020.47;;;18.55;83.24
81125;BME280;71444;52.114;5.424;2023-08-01T09:23:53;100024.03;;;18.44;82.80
81125;BME280;71444;52.114;5.424;2023-08-01T09:26:42;100027.59;;;18.45;82.83
81125;BME280;71444;52.114;5.424;2023-08-01T09:29:31;100028.03;;;18.83;82.63
81125;BME280;71444;52.114;5.424;2023-08-01T09:32:20;100028.31;;;19.34;81.42
81125;BME280;71444;52.114;5.424;2023-08-01T09:35:08;100028.16;;;19.52;79.64
81125;BME280;71444;52.114;5.424;2023-08-01T09:37:49;100040.66;;;19.60;79.84
81125;BME280;71444;52.114;5.424;2023-08-01T09:40:36;100043.81;;;20.09;82.55
81125;BME280;71444;52.114;5.424;2023-08-01T09:43:17;100043.06;;;20.13;79.33
81125;BME280;71444;52.114;5.424;2023-08-01T09:45:56;100052.56;;;19.94;79.78
81125;BME280;71444;52.114;5.424;2023-08-01T09:48:36;100043.03;;;19.44;77.57
81125;BME280;71444;52.114;5.424;2023-08-01T09:51:17;100052.41;;;19.08;79.83
81125;BME280;71444;52.114;5.424;2023-08-01T09:53:57;100065.25;;;19.08;88.34
81125;BME280;71444;52.114;5.424;2023-08-01T09:56:37;100057.25;;;19.30;80.50
81125;BME280;71444;52.114;5.424;2023-08-01T09:59:25;100054.59;;;19.46;80.05
81125;BME280;71444;52.114;5.424;2023-08-01T10:02:08;100058.28;;;19.52;79.67
81125;BME280;71444;52.114;5.424;2023-08-01T10:04:57;100049.34;;;19.68;76.69
81125;BME280;71444;52.114;5.424;2023-08-01T10:07:41;100053.69;;;19.81;76.22
81125;BME280;71444;52.114;5.424;2023-08-01T10:10:23;100060.88;;;20.27;74.50
81125;BME280;71444;52.114;5.424;2023-08-01T10:13:04;100052.38;;;20.57;73.77
81125;BME280;71444;52.114;5.424;2023-08-01T10:15:44;100054.75;;;20.87;73.17
81125;BME280;71444;52.114;5.424;2023-08-01T10:18:28;100059.50;;;20.92;73.66
81125;BME280;71444;52.114;5.424;2023-08-01T10:21:15;100051.53;;;20.57;68.28
81125;BME280;71444;52.114;5.424;2023-08-01T10:23:58;100069.38;;;20.14;71.82
81125;BME280;71444;52.114;5.424;2023-08-01T10:26:39;100070.47;;;19.85;72.38
81125;BME280;71444;52.114;5.424;2023-08-01T10:29:37;100076.38;;;19.65;71.74
81125;BME280;71444;52.114;5.424;2023-08-01T10:32:36;100077.59;;;19.97;70.80
81125;BME280;71444;52.114;5.424;2023-08-01T10:35:33;100077.25;;;20.39;69.79
81125;BME280;71444;52.114;5.424;2023-08-01T10:38:23;100064.56;;;20.83;65.99
81125;BME280;71444;52.114;5.424;2023-08-01T10:41:02;100066.31;;;20.89;62.80
81125;BME280;71444;52.114;5.424;2023-08-01T10:43:42;100082.75;;;20.39;65.08
81125;BME280;71444;52.114;5.424;2023-08-01T10:46:22;100081.19;;;20.15;67.57
81125;BME280;71444;52.114;5.424;2023-08-01T10:49:01;100086.44;;;20.16;67.42
81125;BME280;71444;52.114;5.424;2023-08-01T10:51:42;100092.50;;;20.47;67.90
81125;BME280;71444;52.114;5.424;2023-08-01T10:54:24;100080.47;;;20.81;68.28
81125;BME280;71444;52.114;5.424;2023-08-01T10:57:05;100076.09;;;21.02;65.04
81125;BME280;71444;52.114;5.424;2023-08-01T10:59:46;100080.59;;;21.25;63.45
81125;BME280;71444;52.114;5.424;2023-08-01T11:02:27;100077.22;;;21.23;61.37
81125;BME280;71444;52.114;5.424;2023-08-01T11:05:08;100078.84;;;21.19;61.07
81125;BME280;71444;52.114;5.424;2023-08-01T11:07:58;100077.09;;;21.13;61.61
81125;BME280;71444;52.114;5.424;2023-08-01T11:10:39;100090.16;;;21.39;60.64
81125;BME280;71444;52.114;5.424;2023-08-01T11:13:19;100091.00;;;21.84;60.38
81125;BME280;71444;52.114;5.424;2023-08-01T11:15:58;100084.41;;;21.85;57.79
81125;BME280;71444;52.114;5.424;2023-08-01T11:18:50;100095.50;;;21.51;59.50
81125;BME280;71444;52.114;5.424;2023-08-01T11:21:29;100092.09;;;21.05;59.35
81125;BME280;71444;52.114;5.424;2023-08-01T11:24:13;100097.69;;;20.77;60.95
81125;BME280;71444;52.114;5.424;2023-08-01T11:27:04;100112.47;;;20.59;62.44
81125;BME280;71444;52.114;5.424;2023-08-01T11:29:45;100118.72;;;20.71;68.22
81125;BME280;71444;52.114;5.424;2023-08-01T11:32:38;100115.63;;;21.01;61.58
81125;BME280;71444;52.114;5.424;2023-08-01T11:35:42;100102.56;;;21.25;60.96
81125;BME280;71444;52.114;5.424;2023-08-01T11:38:33;100103.44;;;21.47;57.48
81125;BME280;71444;52.114;5.424;2023-08-01T11:41:14;100098.91;;;21.58;57.99
81125;BME280;71444;52.114;5.424;2023-08-01T11:44:04;100108.63;;;21.44;56.81
81125;BME280;71444;52.114;5.424;2023-08-01T11:46:44;100117.53;;;21.17;58.32
81125;BME280;71444;52.114;5.424;2023-08-01T11:49:24;100118.97;;;20.86;59.74
81125;BME280;71444;52.114;5.424;2023-08-01T11:52:04;100137.50;;;20.62;59.42
81125;BME280;71444;52.114;5.424;2023-08-01T11:54:49;100124.72;;;20.68;58.59
81125;BME280;71444;52.114;5.424;2023-08-01T11:57:29;100122.22;;;21.00;59.34
81125;BME280;71444;52.114;5.424;2023-08-01T12:00:10;100109.31;;;21.01;58.91
81125;BME280;71444;52.114;5.424;2023-08-01T12:03:10;100123.13;;;21.06;59.87
81125;BME280;71444;52.114;5.424;2023-08-01T12:06:03;100117.00;;;21.54;59.29
81125;BME280;71444;52.114;5.424;2023-08-01T12:08:52;100117.06;;;22.03;56.94
81125;BME280;71444;52.114;5.424;2023-08-01T12:11:32;100114.41;;;22.08;56.36
81125;BME280;71444;52.114;5.424;2023-08-01T12:14:14;100135.03;;;21.67;57.22
81125;BME280;71444;52.114;5.424;2023-08-01T12:16:54;100137.19;;;21.09;59.64
81125;BME280;71444;52.114;5.424;2023-08-01T12:19:35;100148.41;;;20.74;60.70
81125;BME280;71444;52.114;5.424;2023-08-01T12:22:15;100141.25;;;20.56;60.07
81125;BME280;71444;52.114;5.424;2023-08-01T12:24:58;100145.19;;;20.77;61.61
81125;BME280;71444;52.114;5.424;2023-08-01T12:27:38;100151.50;;;20.95;61.10
81125;BME280;71444;52.114;5.424;2023-08-01T12:30:18;100147.69;;;20.96;61.42
81125;BME280;71444;52.114;5.424;2023-08-01T12:32:57;100156.72;;;20.79;62.87
81125;BME280;71444;52.114;5.424;2023-08-01T12:35:41;100150.97;;;20.64;61.42
81125;BME280;71444;52.114;5.424;2023-08-01T12:38:21;100162.41;;;20.32;61.60
81125;BME280;71444;52.114;5.424;2023-08-01T12:41:03;100165.72;;;20.18;62.49
81125;BME280;71444;52.114;5.424;2023-08-01T12:43:43;100170.41;;;19.94;62.71
81125;BME280;71444;52.114;5.424;2023-08-01T12:46:22;100157.41;;;20.01;62.80
81125;BME280;71444;52.114;5.424;2023-08-01T12:49:10;100157.88;;;20.83;62.32
81125;BME280;71444;52.114;5.424;2023-08-01T12:51:50;100153.00;;;21.74;59.03
81125;BME280;71444;52.114;5.424;2023-08-01T12:54:30;100153.81;;;22.41;57.22
81125;BME280;71444;52.114;5.424;2023-08-01T12:57:12;100147.66;;;22.55;54.80
81125;BME280;71444;52.114;5.424;2023-08-01T13:00:00;100151.28;;;22.34;53.73
81125;BME280;71444;52.114;5.424;2023-08-01T13:02:44;100160.78;;;21.83;53.40
81125;BME280;71444;52.114;5.424;2023-08-01T13:05:30;100157.16;;;21.55;54.94
81125;BME280;71444;52.114;5.424;2023-08-01T13:08:10;100157.06;;;21.33;55.51
81125;BME280;71444;52.114;5.424;2023-08-01T13:10:50;100182.94;;;20.87;60.76
81125;BME280;71444;52.114;5.424;2023-08-01T13:13:30;100199.38;;;20.01;66.98
81125;BME280;71444;52.114;5.424;2023-08-01T13:16:09;100201.88;;;19.33;70.89
81125;BME280;71444;52.114;5.424;2023-08-01T13:18:49;100206.13;;;19.05;73.23
81125;BME280;71444;52.114;5.424;2023-08-01T13:21:35;100205.25;;;18.81;72.46
81125;BME280;71444;52.114;5.424;2023-08-01T13:24:15;100205.34;;;18.75;73.55
81125;BME280;71444;52.114;5.424;2023-08-01T13:26:54;100198.47;;;18.84;73.05
81125;BME280;71444;52.114;5.424;2023-08-01T13:29:34;100201.47;;;18.94;73.50
81125;BME280;71444;52.114;5.424;2023-08-01T13:32:14;100198.66;;;19.01;73.27
81125;BME280;71444;52.114;5.424;2023-08-01T13:34:56;100202.72;;;19.10;73.51
81125;BME280;71444;52.114;5.424;2023-08-01T13:37:35;100199.88;;;19.28;72.39
81125;BME280;71444;52.114;5.424;2023-08-01T13:40:15;100194.06;;;19.60;71.45
81125;BME280;71444;52.114;5.424;2023-08-01T13:42:55;100193.50;;;20.50;69.69
81125;BME280;71444;52.114;5.424;2023-08-01T13:45:35;100189.19;;;21.66;65.75
81125;BME280;71444;52.114;5.424;2023-08-01T13:48:23;100183.28;;;22.94;61.19
81125;BME280;71444;52.114;5.424;2023-08-01T13:51:12;100184.47;;;23.78;58.35
81125;BME280;71444;52.114;5.424;2023-08-01T13:53:52;100186.56;;;24.18;57.18
81125;BME280;71444;52.114;5.424;2023-08-01T13:56:34;100175.69;;;23.86;56.85
81125;BME280;71444;52.114;5.424;2023-08-01T13:59:13;100170.25;;;23.16;57.54
81125;BME280;71444;52.114;5.424;2023-08-01T14:01:53;100182.59;;;22.55;55.44
81125;BME280;71444;52.114;5.424;2023-08-01T14:04:43;100191.72;;;22.12;56.39
81125;BME280;71444;52.114;5.424;2023-08-01T14:07:23;100189.50;;;21.53;55.70
81125;BME280;71444;52.114;5.424;2023-08-01T14:10:04;100196.91;;;21.02;57.66
81125;BME280;71444;52.114;5.424;2023-08-01T14:12:44;100200.66;;;20.51;58.48
81125;BME280;71444;52.114;5.424;2023-08-01T14:15:24;100209.03;;;20.32;59.82
81125;BME280;71444;52.114;5.424;2023-08-01T14:18:15;100202.00;;;20.37;59.40
81125;BME280;71444;52.114;5.424;2023-08-01T14:20:55;100217.66;;;20.24;59.76
81125;BME280;71444;52.114;5.424;2023-08-01T14:23:35;100218.88;;;20.05;60.00
81125;BME280;71444;52.114;5.424;2023-08-01T14:26:19;100220.00;;;19.81;61.36
81125;BME280;71444;52.114;5.424;2023-08-01T14:28:59;100227.78;;;19.60;62.77
81125;BME280;71444;52.114;5.424;2023-08-01T14:31:38;100219.88;;;19.40;62.86